createdAt,value
2022-12-11T00:02:04.674Z,-3.20
2022-12-11T00:04:32.905Z,-3.20
2022-12-11T00:07:01.075Z,-3.00
2022-12-11T00:09:30.637Z,-2.90
2022-12-11T00:11:58.797Z,-2.80
2022-12-11T00:14:26.987Z,-2.80
2022-12-11T00:16:55.183Z,-2.80
2022-12-11T00:19:24.730Z,-2.60
2022-12-11T00:21:53.021Z,-2.70
2022-12-11T00:24:21.103Z,-2.80
2022-12-11T00:26:49.277Z,-2.80
2022-12-11T00:29:17.601Z,-2.80
2022-12-11T00:31:45.800Z,-2.70
2022-12-11T00:34:14.048Z,-2.70
2022-12-11T00:36:43.750Z,-2.50
2022-12-11T00:39:12.034Z,-2.60
2022-12-11T00:41:42.548Z,-2.60
2022-12-11T00:44:11.774Z,-2.60
2022-12-11T00:46:42.115Z,-2.80
2022-12-11T00:49:10.484Z,-2.50
2022-12-11T00:51:38.712Z,-2.40
2022-12-11T00:54:08.320Z,-2.40
2022-12-11T00:56:36.591Z,-2.40
2022-12-11T00:59:04.980Z,-2.30
2022-12-11T01:01:36.300Z,-2.30
2022-12-11T01:04:04.676Z,-2.50
2022-12-11T01:06:32.778Z,-2.50
2022-12-11T01:09:18.510Z,-2.60
2022-12-11T01:11:48.113Z,-2.80
2022-12-11T01:14:17.711Z,-2.80
2022-12-11T01:16:46.052Z,-2.70
2022-12-11T01:19:14.136Z,-2.60
2022-12-11T01:21:42.420Z,-2.40
2022-12-11T01:24:10.551Z,-2.40
2022-12-11T01:26:38.656Z,-2.30
2022-12-11T01:29:11.217Z,-2.40
2022-12-11T01:31:39.556Z,-2.40
2022-12-11T01:34:07.676Z,-2.50
2022-12-11T01:36:35.831Z,-2.50
2022-12-11T01:39:04.176Z,-2.60
2022-12-11T01:41:32.305Z,-2.70
2022-12-11T01:44:02.502Z,-2.80
2022-12-11T01:46:33.065Z,-2.80
2022-12-11T01:49:01.809Z,-2.70
2022-12-11T01:51:30.906Z,-2.80
2022-12-11T01:54:00.566Z,-2.70
2022-12-11T01:56:31.373Z,-2.70
2022-12-11T01:59:01.102Z,-2.70
2022-12-11T02:01:34.387Z,-2.70
2022-12-11T02:04:04.230Z,-2.70
2022-12-11T02:06:34.205Z,-2.60
2022-12-11T02:09:02.887Z,-2.60
2022-12-11T02:11:35.076Z,-2.60
2022-12-11T02:14:06.580Z,-2.60
2022-12-11T02:16:37.985Z,-2.60
2022-12-11T02:19:16.689Z,-2.70
2022-12-11T02:21:49.294Z,-2.70
2022-12-11T02:24:28.676Z,-2.70
2022-12-11T02:27:07.657Z,-2.80
2022-12-11T02:29:38.785Z,-2.80
2022-12-11T02:32:12.241Z,-2.90
2022-12-11T02:34:42.745Z,-2.90
2022-12-11T02:37:14.985Z,-2.90
2022-12-11T02:39:44.796Z,-3.00
2022-12-11T02:42:14.172Z,-3.00
2022-12-11T02:44:44.745Z,-3.00
2022-12-11T02:47:14.349Z,-3.00
2022-12-11T02:49:43.577Z,-3.10
2022-12-11T02:52:13.150Z,-3.20
2022-12-11T02:54:42.745Z,-3.30
2022-12-11T02:57:13.328Z,-3.30
2022-12-11T02:59:42.761Z,-3.30
2022-12-11T03:02:12.864Z,-3.40
2022-12-11T03:04:42.255Z,-3.50
2022-12-11T03:07:14.062Z,-3.50
2022-12-11T03:09:42.890Z,-3.60
2022-12-11T03:12:12.670Z,-3.70
2022-12-11T03:14:41.569Z,-3.70
2022-12-11T03:17:14.686Z,-3.60
2022-12-11T03:19:46.588Z,-3.60
2022-12-11T03:22:18.252Z,-3.60
2022-12-11T03:24:48.544Z,-3.70
2022-12-11T03:27:18.433Z,-3.60
2022-12-11T03:29:51.410Z,-3.50
2022-12-11T03:32:23.099Z,-3.40
2022-12-11T03:34:58.521Z,-3.40
2022-12-11T03:37:27.929Z,-3.40
2022-12-11T03:39:59.708Z,-3.40
2022-12-11T03:42:28.400Z,-3.00
2022-12-11T03:44:58.264Z,-2.90
2022-12-11T03:47:27.160Z,-2.40
2022-12-11T03:49:57.044Z,-2.20
2022-12-11T03:52:27.521Z,-2.10
2022-12-11T03:54:56.704Z,-2.10
2022-12-11T03:57:26.918Z,-1.90
2022-12-11T03:59:55.062Z,-1.90
2022-12-11T04:02:23.394Z,-2.00
2022-12-11T04:04:51.480Z,-1.90
2022-12-11T04:07:21.130Z,-1.70
2022-12-11T04:09:49.472Z,-1.80
2022-12-11T04:12:17.584Z,-1.80
2022-12-11T04:15:03.122Z,-1.80
2022-12-11T04:17:49.600Z,-1.80
2022-12-11T04:20:40.711Z,-1.80
2022-12-11T04:23:31.070Z,-1.70
2022-12-11T04:26:04.694Z,-1.70
2022-12-11T04:28:32.772Z,-1.60
2022-12-11T04:31:03.681Z,-1.50
2022-12-11T04:33:31.976Z,-1.50
2022-12-11T04:36:00.554Z,-1.50
2022-12-11T04:38:30.064Z,-1.50
2022-12-11T04:41:02.009Z,-1.50
2022-12-11T04:43:30.625Z,-1.60
2022-12-11T04:46:02.359Z,-1.40
2022-12-11T04:48:30.666Z,-1.50
2022-12-11T04:50:58.977Z,-1.40
2022-12-11T04:53:27.590Z,-1.60
2022-12-11T04:55:57.707Z,-1.60
2022-12-11T04:58:26.732Z,-1.70
2022-12-11T05:00:55.258Z,-1.80
2022-12-11T05:03:28.591Z,-1.80
2022-12-11T05:05:56.700Z,-1.80
2022-12-11T05:08:27.028Z,-1.80
2022-12-11T05:10:59.903Z,-1.90
2022-12-11T05:13:28.448Z,-2.00
2022-12-11T05:15:56.793Z,-2.00
2022-12-11T05:18:25.574Z,-2.00
2022-12-11T05:20:56.787Z,-2.00
2022-12-11T05:23:24.979Z,-2.00
2022-12-11T05:25:53.636Z,-2.10
2022-12-11T05:28:25.092Z,-2.10
2022-12-11T05:30:56.809Z,-2.10
2022-12-11T05:33:25.148Z,-2.00
2022-12-11T05:35:53.387Z,-2.10
2022-12-11T05:38:21.483Z,-2.10
2022-12-11T05:40:56.754Z,-2.10
2022-12-11T05:43:26.655Z,-2.10
2022-12-11T05:45:55.293Z,-2.10
2022-12-11T05:48:23.860Z,-2.10
2022-12-11T05:51:01.629Z,-2.20
2022-12-11T05:53:32.782Z,-2.20
2022-12-11T05:56:05.365Z,-2.20
2022-12-11T05:58:34.904Z,-2.20
2022-12-11T06:01:03.413Z,-2.20
2022-12-11T06:03:31.668Z,-2.20
2022-12-11T06:06:02.982Z,-2.30
2022-12-11T06:08:31.284Z,-2.20
2022-12-11T06:10:59.578Z,-2.30
2022-12-11T06:13:30.064Z,-2.20
2022-12-11T06:16:03.331Z,-2.20
2022-12-11T06:18:31.943Z,-2.30
2022-12-11T06:21:00.080Z,-2.30
2022-12-11T06:23:28.211Z,-2.30
2022-12-11T06:25:56.380Z,-2.30
2022-12-11T06:28:24.484Z,-2.30
2022-12-11T06:30:52.839Z,-2.30
2022-12-11T06:33:22.628Z,-2.30
2022-12-11T06:35:50.680Z,-2.30
2022-12-11T06:38:18.912Z,-2.30
2022-12-11T06:40:47.186Z,-2.30
2022-12-11T06:43:15.336Z,-2.30
2022-12-11T06:45:43.635Z,-2.30
2022-12-11T06:48:11.797Z,-2.30
2022-12-11T06:50:41.307Z,-2.40
2022-12-11T06:53:09.500Z,-2.40
2022-12-11T06:55:37.822Z,-2.40
2022-12-11T06:58:05.972Z,-2.40
2022-12-11T07:00:35.895Z,-2.40
2022-12-11T07:03:04.129Z,-2.40
2022-12-11T07:05:32.641Z,-2.40
2022-12-11T07:08:02.479Z,-2.40
2022-12-11T07:10:30.618Z,-2.50
2022-12-11T07:12:58.726Z,-2.50
2022-12-11T07:15:26.962Z,-2.50
2022-12-11T07:17:55.208Z,-2.50
2022-12-11T07:20:23.558Z,-2.50
2022-12-11T07:22:51.847Z,-2.50
2022-12-11T07:25:21.441Z,-2.50
2022-12-11T07:27:49.753Z,-2.50
2022-12-11T07:30:17.963Z,-2.50
2022-12-11T07:32:46.108Z,-2.50
2022-12-11T07:35:16.864Z,-2.50
2022-12-11T07:37:46.057Z,-2.50
2022-12-11T07:40:15.182Z,-2.50
2022-12-11T07:42:47.581Z,-2.50
2022-12-11T07:45:15.861Z,-2.60
2022-12-11T07:47:44.092Z,-2.60
2022-12-11T07:50:12.272Z,-2.60
2022-12-11T07:52:40.737Z,-2.60
2022-12-11T07:55:09.396Z,-2.60
2022-12-11T07:57:37.923Z,-2.60
2022-12-11T08:00:08.714Z,-2.60
2022-12-11T08:02:37.525Z,-2.60
2022-12-11T08:05:06.490Z,-2.60
2022-12-11T08:07:35.349Z,-2.60
2022-12-11T08:10:03.812Z,-2.60
2022-12-11T08:12:32.067Z,-2.60
2022-12-11T08:15:00.252Z,-2.70
2022-12-11T08:17:33.906Z,-2.70
2022-12-11T08:20:05.484Z,-2.70
2022-12-11T08:22:33.775Z,-2.70
2022-12-11T08:25:01.843Z,-2.70
2022-12-11T08:27:30.161Z,-2.70
2022-12-11T08:30:01.108Z,-2.70
2022-12-11T08:32:30.584Z,-2.80
2022-12-11T08:34:58.747Z,-2.80
2022-12-11T08:37:26.961Z,-2.70
2022-12-11T08:39:55.097Z,-2.70
2022-12-11T08:42:23.302Z,-2.80
2022-12-11T08:44:51.961Z,-2.80
2022-12-11T08:47:20.073Z,-2.90
2022-12-11T08:49:49.689Z,-2.90
2022-12-11T08:52:17.916Z,-2.90
2022-12-11T08:54:46.080Z,-2.90
2022-12-11T08:57:14.241Z,-2.90
2022-12-11T08:59:42.554Z,-2.90
2022-12-11T09:02:12.504Z,-3.00
2022-12-11T09:04:40.925Z,-3.00
2022-12-11T09:07:10.396Z,-3.00
2022-12-11T09:09:38.648Z,-3.00
2022-12-11T09:12:07.041Z,-3.00
2022-12-11T09:14:35.701Z,-3.00
2022-12-11T09:17:05.643Z,-3.10
2022-12-11T09:19:33.820Z,-3.00
2022-12-11T09:22:02.030Z,-3.00
2022-12-11T09:24:31.758Z,-3.00
2022-12-11T09:26:59.873Z,-3.00
2022-12-11T09:29:28.087Z,-3.00
2022-12-11T09:31:56.462Z,-3.00
2022-12-11T09:34:29.172Z,-3.00
2022-12-11T09:36:57.842Z,-3.00
2022-12-11T09:39:25.939Z,-3.00
2022-12-11T09:41:58.556Z,-2.90
2022-12-11T09:44:32.799Z,-2.90
2022-12-11T09:47:01.309Z,-2.90
2022-12-11T09:49:35.459Z,-2.90
2022-12-11T09:52:08.668Z,-2.90
2022-12-11T09:54:37.084Z,-2.80
2022-12-11T09:57:11.822Z,-2.80
2022-12-11T09:59:46.324Z,-2.80
2022-12-11T10:02:21.199Z,-2.80
2022-12-11T10:04:56.104Z,-2.80
2022-12-11T10:07:29.117Z,-2.90
2022-12-11T10:09:59.640Z,-2.90
2022-12-11T10:12:35.128Z,-2.90
2022-12-11T10:15:27.497Z,-2.90
2022-12-11T10:18:01.304Z,-2.90
2022-12-11T10:20:35.085Z,-2.90
2022-12-11T10:23:03.724Z,-2.90
2022-12-11T10:25:36.630Z,-2.90
2022-12-11T10:28:12.679Z,-2.90
2022-12-11T10:30:42.437Z,-2.90
2022-12-11T10:33:15.832Z,-3.00
2022-12-11T10:35:46.392Z,-2.90
2022-12-11T10:38:16.517Z,-2.90
2022-12-11T10:40:45.658Z,-2.90
2022-12-11T10:43:15.277Z,-2.90
2022-12-11T10:45:51.895Z,-2.90
2022-12-11T10:48:19.998Z,-2.90
2022-12-11T10:50:59.213Z,-2.90
2022-12-11T10:53:27.698Z,-2.90
2022-12-11T10:55:59.309Z,-2.80
2022-12-11T10:58:33.863Z,-2.80
2022-12-11T11:01:05.267Z,-2.80
2022-12-11T11:03:33.645Z,-2.80
2022-12-11T11:06:06.058Z,-2.70
2022-12-11T11:08:41.326Z,-2.70
2022-12-11T11:11:19.322Z,-2.70
2022-12-11T11:13:48.877Z,-2.60
2022-12-11T11:16:18.473Z,-2.60
2022-12-11T11:18:51.836Z,-2.60
2022-12-11T11:21:20.552Z,-2.50
2022-12-11T11:23:53.200Z,-2.40
2022-12-11T11:26:22.765Z,-2.40
2022-12-11T11:28:53.361Z,-2.30
2022-12-11T11:31:23.086Z,-2.20
2022-12-11T11:33:55.904Z,-2.30
2022-12-11T11:36:25.646Z,-2.40
2022-12-11T11:39:05.960Z,-2.50
2022-12-11T11:41:38.989Z,-2.60
2022-12-11T11:44:11.741Z,-2.60
2022-12-11T11:46:43.402Z,-2.60
2022-12-11T11:49:15.203Z,-2.70
2022-12-11T11:51:46.845Z,-2.70
2022-12-11T11:54:22.208Z,-2.70
2022-12-11T11:56:51.449Z,-2.70
2022-12-11T11:59:24.016Z,-2.90
2022-12-11T12:01:53.017Z,-2.90
2022-12-11T12:04:24.193Z,-2.90
2022-12-11T12:06:58.969Z,-3.00
2022-12-11T12:09:34.291Z,-3.00
2022-12-11T12:12:08.500Z,-3.00
2022-12-11T12:14:52.030Z,-3.00
2022-12-11T12:17:23.739Z,-3.10
2022-12-11T12:19:56.508Z,-3.20
2022-12-11T12:22:32.168Z,-3.20
2022-12-11T12:25:04.276Z,-3.20
2022-12-11T12:27:52.070Z,-3.20
2022-12-11T12:30:23.911Z,-3.20
2022-12-11T12:33:07.940Z,-3.20
2022-12-11T12:35:37.084Z,-3.30
2022-12-11T12:38:08.168Z,-3.30
2022-12-11T12:40:38.635Z,-3.40
2022-12-11T12:43:14.564Z,-3.40
2022-12-11T12:45:48.802Z,-3.40
2022-12-11T12:48:17.357Z,-3.50
2022-12-11T12:50:47.869Z,-3.50
2022-12-11T12:53:18.997Z,-3.50
2022-12-11T12:55:47.875Z,-3.50
2022-12-11T12:58:30.636Z,-3.50
2022-12-11T13:01:09.985Z,-3.50
2022-12-11T13:03:39.128Z,-3.60
2022-12-11T13:06:08.945Z,-3.50
2022-12-11T13:08:39.940Z,-3.50
2022-12-11T13:11:09.841Z,-3.50
2022-12-11T13:13:39.512Z,-3.60
2022-12-11T13:16:22.610Z,-3.60
2022-12-11T13:18:52.439Z,-3.60
2022-12-11T13:21:28.421Z,-3.60
2022-12-11T13:23:57.088Z,-3.70
2022-12-11T13:26:32.361Z,-3.70
2022-12-11T13:29:00.530Z,-3.70
2022-12-11T13:31:32.137Z,-3.80
2022-12-11T13:34:10.636Z,-4.00
2022-12-11T13:36:40.703Z,-4.00
2022-12-11T13:39:17.150Z,-4.00
2022-12-11T13:41:47.072Z,-4.00
2022-12-11T13:44:23.203Z,-4.00
2022-12-11T13:46:53.369Z,-4.00
2022-12-11T13:49:24.652Z,-4.00
2022-12-11T13:51:54.480Z,-4.10
2022-12-11T13:54:22.729Z,-3.80
2022-12-11T13:57:03.915Z,-3.80
2022-12-11T13:59:33.813Z,-3.40
2022-12-11T14:02:06.241Z,-3.30
2022-12-11T14:04:36.600Z,-3.30
2022-12-11T14:07:08.240Z,-3.00
2022-12-11T14:09:38.897Z,-2.90
2022-12-11T14:12:07.401Z,-3.00
2022-12-11T14:14:40.344Z,-2.90
2022-12-11T14:17:13.881Z,-2.80
2022-12-11T14:19:47.365Z,-2.80
2022-12-11T14:22:19.948Z,-2.70
2022-12-11T14:24:51.856Z,-2.70
2022-12-11T14:27:20.320Z,-2.60
2022-12-11T14:29:48.656Z,-2.40
2022-12-11T14:32:20.048Z,-2.40
2022-12-11T14:34:50.319Z,-2.40
2022-12-11T14:37:19.297Z,-2.60
2022-12-11T14:39:50.572Z,-2.80
2022-12-11T14:42:21.004Z,-3.00
2022-12-11T14:44:51.054Z,-3.00
2022-12-11T14:47:20.632Z,-3.10
2022-12-11T14:49:52.249Z,-3.00
2022-12-11T14:52:22.541Z,-3.00
2022-12-11T14:54:52.755Z,-2.90
2022-12-11T14:57:22.441Z,-2.80
2022-12-11T14:59:51.697Z,-2.80
2022-12-11T15:02:23.798Z,-2.70
2022-12-11T15:05:02.254Z,-2.80
2022-12-11T15:07:30.979Z,-2.90
2022-12-11T15:09:59.177Z,-3.00
2022-12-11T15:12:27.569Z,-3.10
2022-12-11T15:14:56.870Z,-3.10
2022-12-11T15:17:26.025Z,-3.10
2022-12-11T15:19:54.875Z,-3.20
2022-12-11T15:22:28.394Z,-3.30
2022-12-11T15:24:56.769Z,-3.30
2022-12-11T15:27:26.996Z,-3.40
2022-12-11T15:29:55.475Z,-3.40
2022-12-11T15:32:24.295Z,-3.40
2022-12-11T15:34:53.375Z,-3.40
2022-12-11T15:37:23.327Z,-3.40
2022-12-11T15:39:53.435Z,-3.50
2022-12-11T15:42:24.454Z,-3.70
2022-12-11T15:44:52.788Z,-3.60
2022-12-11T15:47:22.646Z,-3.60
2022-12-11T15:49:50.857Z,-3.50
2022-12-11T15:52:19.029Z,-3.70
2022-12-11T15:54:47.349Z,-3.70
2022-12-11T15:57:18.815Z,-3.70
2022-12-11T15:59:48.889Z,-3.70
2022-12-11T16:02:17.273Z,-3.70
2022-12-11T16:04:45.637Z,-3.30
2022-12-11T16:07:16.368Z,-3.40
2022-12-11T16:09:44.708Z,-3.10
2022-12-11T16:12:14.090Z,-2.70
2022-12-11T16:14:43.795Z,-2.60
2022-12-11T16:17:12.912Z,-2.40
2022-12-11T16:19:44.232Z,-2.30
2022-12-11T16:22:13.469Z,-2.20
2022-12-11T16:24:42.175Z,-2.20
2022-12-11T16:27:10.814Z,-2.30
2022-12-11T16:29:39.787Z,-2.30
2022-12-11T16:32:09.777Z,-2.10
2022-12-11T16:34:38.504Z,-2.10
2022-12-11T16:37:07.033Z,-2.20
2022-12-11T16:39:35.469Z,-2.20
2022-12-11T16:42:03.717Z,-2.20
2022-12-11T16:44:31.853Z,-1.90
2022-12-11T16:47:00.146Z,-1.70
2022-12-11T16:49:31.942Z,-1.70
2022-12-11T16:52:00.083Z,-1.80
2022-12-11T16:54:28.209Z,-1.70
2022-12-11T16:56:56.335Z,-1.80
2022-12-11T16:59:24.657Z,-1.70
2022-12-11T17:01:55.790Z,-1.60
2022-12-11T17:04:23.965Z,-1.60
2022-12-11T17:06:53.492Z,-1.60
2022-12-11T17:09:23.485Z,-1.60
2022-12-11T17:11:51.725Z,-1.70
2022-12-11T17:14:20.520Z,-1.70
2022-12-11T17:16:49.333Z,-1.70
2022-12-11T17:19:17.770Z,-1.50
2022-12-11T17:21:51.566Z,-1.50
2022-12-11T17:24:21.585Z,-1.40
2022-12-11T17:26:49.879Z,-1.40
2022-12-11T17:29:18.068Z,-1.40
2022-12-11T17:31:46.466Z,-1.20
2022-12-11T17:34:14.715Z,-1.20
2022-12-11T17:36:42.792Z,-1.10
2022-12-11T17:39:11.136Z,-1.20
2022-12-11T17:41:40.813Z,-1.10
2022-12-11T17:44:10.979Z,-1.10
2022-12-11T17:46:39.358Z,-1.10
2022-12-11T17:49:07.501Z,-1.20
2022-12-11T17:51:35.652Z,-1.20
2022-12-11T17:54:04.453Z,-1.10
2022-12-11T17:56:34.887Z,-1.10
2022-12-11T17:59:04.960Z,-1.10
2022-12-11T18:01:33.185Z,-1.20
2022-12-11T18:04:01.944Z,-1.30
2022-12-11T18:06:30.493Z,-1.30
2022-12-11T18:08:59.046Z,-1.40
2022-12-11T18:11:27.409Z,-1.50
2022-12-11T18:13:55.572Z,-1.50
2022-12-11T18:16:26.872Z,-1.50
2022-12-11T18:18:56.535Z,-1.40
2022-12-11T18:21:26.565Z,-1.40
2022-12-11T18:23:54.966Z,-1.30
2022-12-11T18:26:23.327Z,-1.30
2022-12-11T18:28:52.281Z,-1.30
2022-12-11T18:31:21.464Z,-1.40
2022-12-11T18:33:51.524Z,-1.30
2022-12-11T18:36:20.352Z,-1.40
2022-12-11T18:38:48.454Z,-1.40
2022-12-11T18:41:17.098Z,-1.50
2022-12-11T18:43:45.560Z,-1.40
2022-12-11T18:46:15.276Z,-1.40
2022-12-11T18:48:43.968Z,-1.40
2022-12-11T18:51:14.837Z,-1.40
2022-12-11T18:53:43.020Z,-1.40
2022-12-11T18:56:12.233Z,-1.40
2022-12-11T18:58:40.797Z,-1.50
2022-12-11T19:01:09.217Z,-1.50
2022-12-11T19:03:37.962Z,-1.60
2022-12-11T19:06:10.949Z,-1.60
2022-12-11T19:08:40.924Z,-1.60
2022-12-11T19:11:09.173Z,-1.50
2022-12-11T19:13:38.343Z,-1.50
2022-12-11T19:16:06.706Z,-1.30
2022-12-11T19:18:35.009Z,-1.30
2022-12-11T19:21:08.791Z,-1.10
2022-12-11T19:23:37.418Z,-1.20
2022-12-11T19:26:10.804Z,-1.20
2022-12-11T19:28:39.075Z,-1.30
2022-12-11T19:31:10.214Z,-1.30
2022-12-11T19:33:38.540Z,-1.40
2022-12-11T19:36:09.358Z,-1.40
2022-12-11T19:38:37.745Z,-1.40
2022-12-11T19:41:08.116Z,-1.40
2022-12-11T19:43:36.851Z,-1.40
2022-12-11T19:46:05.575Z,-1.40
2022-12-11T19:48:35.109Z,-1.50
2022-12-11T19:51:04.894Z,-1.40
2022-12-11T19:53:33.189Z,-1.40
2022-12-11T19:56:05.279Z,-1.40
2022-12-11T19:58:35.052Z,-1.40
2022-12-11T20:01:03.380Z,-1.30
2022-12-11T20:03:32.240Z,-1.30
2022-12-11T20:06:01.504Z,-1.20
2022-12-11T20:08:44.165Z,-1.30
2022-12-11T20:11:17.900Z,-1.30
2022-12-11T20:13:48.233Z,-1.20
2022-12-11T20:16:17.125Z,-1.10
2022-12-11T20:18:45.673Z,-1.20
2022-12-11T20:21:14.710Z,-1.20
2022-12-11T20:23:43.271Z,-1.10
2022-12-11T20:26:12.141Z,-1.00
2022-12-11T20:28:40.580Z,-0.90
2022-12-11T20:31:16.387Z,-0.90
2022-12-11T20:33:48.761Z,-0.90
2022-12-11T20:36:17.595Z,-1.00
2022-12-11T20:38:46.148Z,-1.00
2022-12-11T20:41:15.339Z,-1.00
2022-12-11T20:43:46.013Z,-1.10
2022-12-11T20:46:16.236Z,-1.10
2022-12-11T20:48:44.886Z,-1.10
2022-12-11T20:51:14.215Z,-1.10
2022-12-11T20:53:42.748Z,-1.10
2022-12-11T20:56:12.208Z,-1.10
2022-12-11T20:58:40.457Z,-1.10
2022-12-11T21:01:08.749Z,-1.10
2022-12-11T21:03:42.009Z,-1.10
2022-12-11T21:06:10.483Z,-1.20
2022-12-11T21:08:38.694Z,-1.30
2022-12-11T21:11:07.313Z,-1.30
2022-12-11T21:13:36.969Z,-1.40
2022-12-11T21:16:06.236Z,-1.40
2022-12-11T21:18:34.744Z,-1.50
2022-12-11T21:21:04.758Z,-1.50
2022-12-11T21:23:33.181Z,-1.40
2022-12-11T21:26:01.432Z,-1.50
2022-12-11T21:28:35.202Z,-1.50
2022-12-11T21:31:05.009Z,-1.40
2022-12-11T21:33:33.309Z,-1.50
2022-12-11T21:36:01.589Z,-1.40
2022-12-11T21:38:33.338Z,-1.40
2022-12-11T21:41:08.161Z,-1.40
2022-12-11T21:43:40.029Z,-1.50
2022-12-11T21:46:17.195Z,-1.50
2022-12-11T21:48:45.396Z,-1.40
2022-12-11T21:51:15.184Z,-1.40
2022-12-11T21:53:44.900Z,-1.40
2022-12-11T21:56:15.388Z,-1.40
2022-12-11T21:58:43.617Z,-1.40
2022-12-11T22:01:15.416Z,-1.40
2022-12-11T22:03:43.793Z,-1.40
2022-12-11T22:06:12.018Z,-1.40
2022-12-11T22:08:40.152Z,-1.40
2022-12-11T22:11:09.852Z,-1.40
2022-12-11T22:13:38.012Z,-1.40
2022-12-11T22:16:06.296Z,-1.40
2022-12-11T22:18:34.524Z,-1.40
2022-12-11T22:21:03.071Z,-1.40
2022-12-11T22:23:31.189Z,-1.40
2022-12-11T22:25:59.416Z,-1.50
2022-12-11T22:28:29.287Z,-1.50
2022-12-11T22:30:57.485Z,-1.50
2022-12-11T22:33:25.798Z,-1.50
2022-12-11T22:35:56.585Z,-1.50
2022-12-11T22:38:24.971Z,-1.60
2022-12-11T22:40:53.664Z,-1.60
2022-12-11T22:43:22.261Z,-1.60
2022-12-11T22:45:52.020Z,-1.70
2022-12-11T22:48:20.276Z,-1.70
2022-12-11T22:50:48.399Z,-1.70
2022-12-11T22:53:16.524Z,-1.70
2022-12-11T22:55:47.460Z,-1.60
2022-12-11T22:58:21.387Z,-1.60
2022-12-11T23:00:51.420Z,-1.60
2022-12-11T23:03:22.512Z,-1.60
2022-12-11T23:05:52.436Z,-1.60
2022-12-11T23:08:20.698Z,-1.60
2022-12-11T23:10:49.052Z,-1.60
2022-12-11T23:13:17.355Z,-1.60
2022-12-11T23:15:45.405Z,-1.50
2022-12-11T23:18:15.036Z,-1.50
2022-12-11T23:20:43.340Z,-1.50
2022-12-11T23:23:11.592Z,-1.60
2022-12-11T23:25:39.741Z,-1.60
2022-12-11T23:28:08.084Z,-1.50
2022-12-11T23:30:36.463Z,-1.40
2022-12-11T23:33:06.649Z,-1.20
2022-12-11T23:35:36.313Z,-1.20
2022-12-11T23:38:05.544Z,-1.30
2022-12-11T23:40:34.056Z,-1.30
2022-12-11T23:43:07.066Z,-1.30
2022-12-11T23:45:35.347Z,-1.20
2022-12-11T23:48:03.495Z,-1.20
2022-12-11T23:50:33.098Z,-1.20
2022-12-11T23:53:02.740Z,-1.20
2022-12-11T23:55:31.162Z,-1.20
2022-12-11T23:57:59.580Z,-1.20
